Terminal Aerodrome Forecast
Issued by NWS

Home | Current Version | Previous Version | Text Only | Print | Product List | Glossary On
Versions: 1 2 3 4 5 6 7 8 9 10 11 12 13 14 15 16 17
239
FTUS43 KPAH 291120
TAFCGI
TAF
KCGI 291120Z 2912/3012 00000KT 1SM BR SCT003
      TEMPO 2912/2913 1/4SM FG VV003
     FM291330 27004KT 6SM HZ FEW030
     FM291700 30004KT P6SM SCT050
     FM300000 00000KT P6SM SKC
     FM300900 00000KT 4SM BR SKC=

USA.gov is the U.S. government's official web portal to all federal, state and local government web resources and services.